Time;durP1;ratioP1;P1;durP2;ratioP2;P2;SDS_P1;SDS_P2;PMS_P1;PMS_P2;Temp;Humidity;BMP_temperature;BMP_pressure;BME280_temperature;BME280_humidity;BME280_pressure;Samples;Min_cycle;Max_cycle;Signal;HPM_P1;HPM_P2
2023/11/25 00:00:53;;;;;;;2.70;1.08;;;;;;;4.67;75.86;99122.50;5005326;28;20121;-76
2023/11/25 00:03:20;;;;;;;7.15;1.08;;;;;;;4.69;75.83;99116.34;5012358;28;20056;-75
2023/11/25 00:05:46;;;;;;;5.95;1.23;;;;;;;4.71;76.13;99116.25;5012881;28;20050;-77
2023/11/25 00:08:13;;;;;;;4.95;1.30;;;;;;;4.73;75.86;99131.84;5012816;28;20553;-78
2023/11/25 00:10:39;;;;;;;6.93;1.35;;;;;;;4.73;75.75;99132.69;5013032;28;20077;-74
2023/11/25 00:13:06;;;;;;;6.03;1.10;;;;;;;4.74;75.93;99130.94;5012822;28;20041;-77
2023/11/25 00:15:33;;;;;;;4.55;1.27;;;;;;;4.76;76.21;99134.31;4995586;28;20046;-76
2023/11/25 00:18:00;;;;;;;4.28;1.02;;;;;;;4.78;76.14;99141.16;5012763;28;20045;-77
2023/11/25 00:20:26;;;;;;;6.35;1.38;;;;;;;4.80;76.20;99135.88;5012693;28;20044;-76
2023/11/25 00:22:53;;;;;;;7.45;1.08;;;;;;;4.83;76.14;99128.78;5012701;28;20406;-75
2023/11/25 00:25:20;;;;;;;7.28;1.58;;;;;;;4.86;76.04;99130.41;5012935;28;20057;-77
2023/11/25 00:27:46;;;;;;;4.55;0.95;;;;;;;4.89;75.98;99124.19;5012569;28;20058;-77
2023/11/25 00:30:14;;;;;;;3.47;0.90;;;;;;;4.91;75.94;99130.19;4995111;28;20097;-77
2023/11/25 00:32:41;;;;;;;2.67;0.77;;;;;;;4.92;75.63;99118.84;5012257;28;20054;-79
2023/11/25 00:35:09;;;;;;;6.93;1.00;;;;;;;4.93;75.53;99120.53;5012493;28;20088;-77
2023/11/25 00:37:36;;;;;;;2.92;1.00;;;;;;;4.93;75.54;99110.97;5004742;28;20049;-78
2023/11/25 00:40:04;;;;;;;6.47;1.10;;;;;;;4.95;75.31;99123.94;5012468;28;20077;-77
2023/11/25 00:42:51;;;;;;;6.55;1.05;;;;;;;4.94;75.24;99117.88;4994990;28;20056;-75
2023/11/25 00:45:35;;;;;;;;;;;;;;;4.95;74.07;99119.59;5012941;28;20477;-76
2023/11/25 00:48:01;;;;;;;7.32;1.05;;;;;;;4.97;75.06;99119.50;5012208;28;19972;-76
2023/11/25 00:50:28;;;;;;;7.90;1.52;;;;;;;4.95;75.26;99131.75;4998574;28;20133;-78
2023/11/25 00:52:55;;;;;;;6.95;1.40;;;;;;;4.93;75.21;99126.63;4992827;28;20046;-76
2023/11/25 00:55:21;;;;;;;9.45;1.80;;;;;;;4.91;75.25;99133.66;4993135;28;20140;-77
2023/11/25 00:57:48;;;;;;;7.03;1.23;;;;;;;4.90;75.13;99134.56;4992938;28;20054;-77
2023/11/25 01:00:22;;;;;;;6.85;1.50;;;;;;;4.90;75.02;99133.72;4992903;28;20054;-76
2023/11/25 01:02:50;;;;;;;4.38;1.08;;;;;;;4.88;75.10;99136.41;4993045;28;20043;-77
2023/11/25 01:05:17;;;;;;;6.60;1.00;;;;;;;4.87;74.97;99142.53;4992137;28;20131;-78
2023/11/25 01:07:44;;;;;;;5.72;1.10;;;;;;;4.86;74.93;99142.59;4991783;28;20471;-76
2023/11/25 01:10:11;;;;;;;6.38;1.60;;;;;;;4.83;74.89;99140.97;4991726;28;20050;-76
2023/11/25 01:12:38;;;;;;;6.20;1.35;;;;;;;4.81;74.86;99138.44;4991655;28;20046;-77
2023/11/25 01:15:05;;;;;;;7.55;1.25;;;;;;;4.79;75.05;99140.25;4991144;28;20105;-75
2023/11/25 01:17:32;;;;;;;4.45;1.30;;;;;;;4.78;74.95;99137.69;4991824;28;20054;-77
2023/11/25 01:19:59;;;;;;;6.55;1.13;;;;;;;4.76;75.08;99145.63;4991851;28;20104;-76
2023/11/25 01:22:26;;;;;;;5.10;1.17;;;;;;;4.75;75.09;99133.47;4991727;28;20069;-75
2023/11/25 01:24:52;;;;;;;6.07;1.27;;;;;;;4.75;74.93;99143.06;4991711;28;20093;-79
2023/11/25 01:27:20;;;;;;;2.58;0.95;;;;;;;4.73;74.93;99137.91;4991465;28;20130;-75
2023/11/25 01:29:47;;;;;;;5.28;1.20;;;;;;;4.72;74.88;99138.84;4991697;28;20570;-75
2023/11/25 01:32:14;;;;;;;6.65;1.42;;;;;;;4.71;74.83;99144.94;4991811;28;20092;-77
2023/11/25 01:34:40;;;;;;;4.82;1.10;;;;;;;4.69;74.93;99137.22;4991355;28;20054;-77
2023/11/25 01:37:07;;;;;;;5.53;1.42;;;;;;;4.68;74.78;99132.06;4974899;28;20446;-76
2023/11/25 01:39:36;;;;;;;6.75;1.30;;;;;;;4.67;75.04;99138.16;4991766;28;20056;-74
2023/11/25 01:42:03;;;;;;;7.50;1.30;;;;;;;4.65;75.18;99138.25;4991890;28;20632;-76
2023/11/25 01:44:29;;;;;;;7.65;1.85;;;;;;;4.66;75.05;99141.69;4991589;28;20046;-76
2023/11/25 01:46:56;;;;;;;1.60;0.95;;;;;;;4.65;75.24;99137.38;4991856;28;20085;-76
2023/11/25 01:49:23;;;;;;;6.05;1.13;;;;;;;4.64;75.28;99148.75;4991497;28;20050;-76
2023/11/25 01:51:51;;;;;;;3.97;1.35;;;;;;;4.63;75.28;99149.66;4991762;28;20046;-77
2023/11/25 01:54:19;;;;;;;8.07;1.10;;;;;;;4.63;75.43;99149.66;4991425;28;20043;-76
2023/11/25 01:56:50;;;;;;;10.13;1.30;;;;;;;4.63;75.28;99147.88;4991268;28;20554;-75
2023/11/25 01:59:18;;;;;;;5.68;1.25;;;;;;;4.64;75.50;99146.97;5003369;28;20049;-74
2023/11/25 02:01:45;;;;;;;6.13;1.25;;;;;;;4.66;75.58;99152.13;4992999;28;20069;-78
2023/11/25 02:04:13;;;;;;;7.40;1.33;;;;;;;4.67;75.30;99156.41;5010179;28;20069;-77
2023/11/25 02:06:40;;;;;;;7.70;1.80;;;;;;;4.66;75.37;99149.50;5003049;28;20042;-76
2023/11/25 02:09:07;;;;;;;9.27;1.38;;;;;;;4.66;75.32;99150.38;4974032;28;20077;-76
2023/11/25 02:11:53;;;;;;;10.30;2.10;;;;;;;4.63;74.31;99144.44;4991524;28;20042;-76
2023/11/25 02:14:20;;;;;;;12.90;1.33;;;;;;;4.67;74.73;99138.16;5003462;28;20049;-77
2023/11/25 02:16:47;;;;;;;15.25;2.42;;;;;;;4.64;75.16;99141.75;5010706;28;20398;-76
2023/11/25 02:19:14;;;;;;;11.20;1.73;;;;;;;4.63;75.12;99145.28;5010227;28;20077;-76
2023/11/25 02:21:42;;;;;;;5.68;1.50;;;;;;;4.62;74.95;99158.38;5010546;28;20046;-78
2023/11/25 02:24:09;;;;;;;7.55;1.08;;;;;;;4.60;75.46;99153.22;5010098;28;20046;-75
2023/11/25 02:26:35;;;;;;;4.35;1.55;;;;;;;4.60;75.57;99139.34;5013540;28;20072;-77
2023/11/25 02:29:02;;;;;;;6.50;1.25;;;;;;;4.61;75.30;99144.50;4996454;28;20573;-77
2023/11/25 02:31:28;;;;;;;6.93;1.73;;;;;;;4.61;75.64;99144.50;5014072;28;20217;-75
2023/11/25 02:33:55;;;;;;;6.35;1.55;;;;;;;4.61;75.57;99139.28;5013703;28;20054;-77
2023/11/25 02:36:23;;;;;;;6.80;1.75;;;;;;;4.62;75.72;99143.59;4996430;28;20042;-75
2023/11/25 02:38:50;;;;;;;6.30;1.40;;;;;;;4.63;75.68;99142.66;5013727;28;20737;-76
2023/11/25 02:41:16;;;;;;;7.70;1.50;;;;;;;4.64;75.57;99138.31;5014035;28;20045;-76
2023/11/25 02:43:43;;;;;;;9.65;1.90;;;;;;;4.64;75.97;99141.75;5013543;28;20069;-77
2023/11/25 02:46:10;;;;;;;3.92;1.30;;;;;;;4.65;75.69;99146.06;5013793;28;20125;-76
2023/11/25 02:48:36;;;;;;;6.63;1.80;;;;;;;4.64;75.34;99151.34;4996311;28;20525;-76
2023/11/25 02:51:03;;;;;;;7.55;1.58;;;;;;;4.63;75.07;99141.84;5013792;28;20061;-76
2023/11/25 02:53:30;;;;;;;7.15;1.58;;;;;;;4.61;74.88;99146.25;4988276;28;20097;-77
2023/11/25 02:55:56;;;;;;;7.93;1.67;;;;;;;4.57;74.64;99135.94;5013627;28;20049;-76
2023/11/25 02:58:23;;;;;;;4.95;1.60;;;;;;;4.55;74.77;99144.75;4991861;28;20137;-77
2023/11/25 03:00:52;;;;;;;12.40;2.47;;;;;;;4.53;74.82;99141.38;4994212;28;20129;-75
2023/11/25 03:03:22;;;;;;;10.80;1.80;;;;;;;4.49;74.80;99156.28;5005700;28;20407;-77
2023/11/25 03:05:53;;;;;;;9.90;1.30;;;;;;;4.45;74.81;99151.25;5013703;28;20442;-77
2023/11/25 03:08:22;;;;;;;6.47;1.30;;;;;;;4.42;74.67;99147.84;5005736;28;20137;-77
2023/11/25 03:10:50;;;;;;;7.05;1.40;;;;;;;4.39;74.79;99137.59;5013425;28;20053;-79
2023/11/25 03:13:17;;;;;;;4.95;1.42;;;;;;;4.36;74.65;99145.53;5013051;28;20076;-75
2023/11/25 03:15:44;;;;;;;11.32;1.90;;;;;;;4.33;74.75;99135.22;5013249;28;20049;-77
2023/11/25 03:18:11;;;;;;;8.20;1.70;;;;;;;4.30;74.57;99140.56;5013304;28;20057;-76
2023/11/25 03:20:39;;;;;;;4.75;1.17;;;;;;;4.27;74.56;99140.69;5013520;28;20414;-76
2023/11/25 03:23:08;;;;;;;11.60;2.40;;;;;;;4.24;74.83;99135.59;5011464;28;20050;-76
2023/11/25 03:25:36;;;;;;;9.80;1.65;;;;;;;4.22;74.67;99129.63;5007385;28;20057;-78
2023/11/25 03:28:05;;;;;;;7.35;1.95;;;;;;;4.18;74.91;99131.47;5012816;28;20055;-76
2023/11/25 03:30:32;;;;;;;10.27;1.58;;;;;;;4.17;75.16;99145.41;5013439;28;20045;-76
2023/11/25 03:32:59;;;;;;;9.57;1.75;;;;;;;4.15;75.40;99134.22;5012398;28;20058;-76
2023/11/25 03:35:26;;;;;;;10.23;2.08;;;;;;;4.15;75.29;99132.44;4998015;28;20053;-78
2023/11/25 03:37:53;;;;;;;7.88;1.67;;;;;;;4.15;75.21;99123.81;5011761;28;20109;-76
2023/11/25 03:40:20;;;;;;;10.38;1.73;;;;;;;4.14;75.43;99119.50;4995261;28;20042;-79
2023/11/25 03:42:46;;;;;;;9.52;1.90;;;;;;;4.14;75.52;99114.28;4995247;28;20046;-76
2023/11/25 03:45:13;;;;;;;11.80;2.13;;;;;;;4.14;75.43;99111.69;5012756;28;20101;-76
2023/11/25 03:47:44;;;;;;;13.25;2.05;;;;;;;4.12;74.99;99111.72;5012759;28;20038;-75
2023/11/25 03:50:15;;;;;;;7.43;1.52;;;;;;;4.14;75.74;99109.94;4995140;28;20054;-76
2023/11/25 03:52:42;;;;;;;7.70;1.67;;;;;;;4.14;75.51;99106.47;5012439;28;20050;-76
2023/11/25 03:55:09;;;;;;;6.43;1.58;;;;;;;4.15;76.01;99109.00;5012442;28;20054;-76
2023/11/25 03:57:38;;;;;;;15.65;2.25;;;;;;;4.17;75.90;99111.56;5012763;28;20058;-77
2023/11/25 04:00:14;;;;;;;8.30;2.03;;;;;;;4.17;76.00;99112.41;5012472;28;20054;-77
2023/11/25 04:02:46;;;;;;;9.57;1.80;;;;;;;4.21;76.15;99125.28;5012489;28;20057;-77
2023/11/25 04:05:14;;;;;;;15.23;2.70;;;;;;;4.25;77.12;99109.50;5012339;28;20065;-74
2023/11/25 04:07:40;;;;;;;10.48;2.22;;;;;;;4.30;77.37;99112.75;5012103;28;20092;-76
2023/11/25 04:10:12;;;;;;;8.55;2.20;;;;;;;4.36;77.64;99106.44;5012233;28;20053;-78
2023/11/25 04:12:40;;;;;;;12.88;2.00;;;;;;;4.44;77.05;99098.28;4994858;28;20101;-77
2023/11/25 04:15:10;;;;;;;8.65;1.85;;;;;;;4.52;76.95;99106.63;5012209;28;20116;-78
2023/11/25 04:17:38;;;;;;;15.48;2.05;;;;;;;4.56;76.43;99096.91;4994755;28;20050;-76
2023/11/25 04:20:12;;;;;;;10.75;1.88;;;;;;;4.58;75.33;99092.50;4994378;28;20573;-76
2023/11/25 04:22:44;;;;;;;12.55;2.53;;;;;;;4.61;75.78;99092.38;5011966;28;20049;-76
2023/11/25 04:25:14;;;;;;;11.63;1.98;;;;;;;4.64;75.79;99084.41;5012226;28;20049;-75
2023/11/25 04:27:46;;;;;;;9.57;2.15;;;;;;;4.63;75.47;99087.91;5012213;28;20049;-77
2023/11/25 04:30:15;;;;;;;8.52;2.38;;;;;;;4.66;75.71;99079.13;5011663;28;20205;-77
2023/11/25 04:32:43;;;;;;;14.43;2.50;;;;;;;4.66;75.54;99066.09;4994018;28;20053;-76
2023/11/25 04:35:10;;;;;;;10.48;2.28;;;;;;;4.64;75.54;99068.75;5011856;28;20414;-76
2023/11/25 04:37:37;;;;;;;10.73;2.00;;;;;;;4.64;75.42;99073.13;5011906;28;20057;-76
2023/11/25 04:40:07;;;;;;;9.93;1.63;;;;;;;4.63;75.36;99080.09;4994220;28;20141;-77
2023/11/25 04:42:34;;;;;;;17.38;3.13;;;;;;;4.63;75.25;99080.09;5011702;28;20057;-77
2023/11/25 04:45:00;;;;;;;13.13;2.88;;;;;;;4.61;75.27;99073.25;5011267;28;20053;-75
2023/11/25 04:47:27;;;;;;;10.10;1.88;;;;;;;4.61;75.18;99073.25;4994051;28;20124;-76
2023/11/25 04:49:54;;;;;;;12.27;2.15;;;;;;;4.59;75.17;99075.09;5011361;28;20046;-77
2023/11/25 04:52:20;;;;;;;9.45;1.88;;;;;;;4.57;75.35;99068.19;5011445;28;20093;-77
2023/11/25 04:54:48;;;;;;;14.10;2.58;;;;;;;4.56;75.21;99076.06;5011369;28;20097;-74
2023/11/25 04:57:15;;;;;;;9.98;2.63;;;;;;;4.55;75.25;99074.38;5011323;28;20062;-77
2023/11/25 04:59:42;;;;;;;14.23;2.38;;;;;;;4.53;75.39;99074.44;5011257;28;20056;-75
2023/11/25 05:02:09;;;;;;;11.68;2.58;;;;;;;4.53;75.47;99082.25;5011360;28;20054;-78
2023/11/25 05:04:35;;;;;;;11.32;2.13;;;;;;;4.53;75.56;99084.84;5011047;28;20506;-77
2023/11/25 05:07:03;;;;;;;10.30;1.75;;;;;;;4.53;75.52;99089.25;5011189;28;20465;-78
2023/11/25 05:09:30;;;;;;;11.65;2.22;;;;;;;4.52;75.49;99080.56;5003246;28;20478;-77
2023/11/25 05:11:56;;;;;;;12.05;2.42;;;;;;;4.51;75.49;99086.69;5011167;28;20092;-77
2023/11/25 05:14:23;;;;;;;12.73;2.22;;;;;;;4.50;75.31;99071.13;5010879;28;20054;-75
2023/11/25 05:16:51;;;;;;;13.10;2.30;;;;;;;4.50;75.50;99068.50;5011337;28;20050;-77
2023/11/25 05:19:18;;;;;;;12.65;2.30;;;;;;;4.49;75.51;99069.44;4993119;28;20050;-77
2023/11/25 05:21:44;;;;;;;10.90;2.60;;;;;;;4.49;75.79;99061.63;4991822;28;20105;-75
2023/11/25 05:24:11;;;;;;;9.88;2.45;;;;;;;4.49;75.98;99054.63;4991792;28;20054;-76
2023/11/25 05:26:38;;;;;;;16.20;2.35;;;;;;;4.50;76.45;99056.34;4991654;28;20038;-76
2023/11/25 05:29:05;;;;;;;16.45;2.47;;;;;;;4.52;76.64;99051.06;4991548;28;20206;-76
2023/11/25 05:31:33;;;;;;;14.93;2.35;;;;;;;4.56;76.96;99058.66;5003057;28;20045;-77
2023/11/25 05:34:04;;;;;;;13.23;2.72;;;;;;;4.60;77.16;99066.38;5010714;28;20046;-74
2023/11/25 05:36:34;;;;;;;15.65;2.75;;;;;;;4.64;77.19;99055.72;5010848;28;20046;-76
2023/11/25 05:39:01;;;;;;;14.18;2.72;;;;;;;4.71;76.98;99065.91;5010867;28;20134;-76
2023/11/25 05:41:27;;;;;;;13.38;2.25;;;;;;;4.75;77.28;99064.84;5010655;28;20087;-77
2023/11/25 05:43:54;;;;;;;16.73;3.22;;;;;;;4.81;77.29;99062.81;4993023;28;20495;-76
2023/11/25 05:46:30;;;;;;;12.23;2.20;;;;;;;4.83;76.21;99074.00;5010988;28;20074;-76
2023/11/25 05:48:57;;;;;;;14.18;2.55;;;;;;;4.92;77.09;99077.13;5002996;28;20053;-76
2023/11/25 05:51:32;;;;;;;10.88;2.22;;;;;;;4.95;76.22;99069.16;4990992;28;20050;-78
2023/11/25 05:53:59;;;;;;;11.57;2.40;;;;;;;5.01;77.02;99055.84;4991262;28;20062;-78
2023/11/25 05:56:26;;;;;;;21.95;2.90;;;;;;;5.06;76.85;99055.66;4991617;28;20510;-76
2023/11/25 05:58:53;;;;;;;15.10;2.88;;;;;;;5.08;76.84;99054.66;4991505;28;20137;-79
2023/11/25 06:01:21;;;;;;;9.55;1.75;;;;;;;5.13;76.62;99053.59;4978819;28;20082;-75
2023/11/25 06:03:52;;;;;;;13.65;2.92;;;;;;;5.15;76.27;99057.81;5014461;28;20038;-76
2023/11/25 06:06:21;;;;;;;17.23;3.00;;;;;;;5.19;76.37;99058.53;5014563;28;20049;-78
2023/11/25 06:08:48;;;;;;;13.50;2.38;;;;;;;5.20;76.10;99048.00;4996947;28;20045;-76
2023/11/25 06:11:22;;;;;;;16.33;2.70;;;;;;;5.19;75.12;99048.94;4997071;28;20050;-76
2023/11/25 06:13:48;;;;;;;16.25;2.85;;;;;;;5.21;75.74;99046.25;5014315;28;20444;-76
2023/11/25 06:16:15;;;;;;;14.52;2.58;;;;;;;5.22;75.65;99037.50;5014428;28;20049;-76
2023/11/25 06:18:42;;;;;;;14.70;1.95;;;;;;;5.21;75.81;99030.63;4996830;28;20486;-76
2023/11/25 06:21:09;;;;;;;12.40;2.67;;;;;;;5.20;75.94;99039.38;5014170;28;20049;-75
2023/11/25 06:23:35;;;;;;;13.50;1.83;;;;;;;5.20;75.65;99039.38;5000152;28;20089;-76
2023/11/25 06:26:02;;;;;;;11.45;2.60;;;;;;;5.21;75.68;99038.44;4995631;28;20427;-76
2023/11/25 06:28:29;;;;;;;8.98;2.15;;;;;;;5.21;75.56;99030.63;4995438;28;20058;-76
2023/11/25 06:30:55;;;;;;;10.50;2.55;;;;;;;5.19;75.49;99017.63;4995437;28;20050;-77
2023/11/25 06:33:25;;;;;;;20.40;2.42;;;;;;;5.17;75.17;99008.19;4994709;28;20046;-75
2023/11/25 06:35:55;;;;;;;10.57;2.00;;;;;;;5.17;75.71;99014.25;4995420;28;20049;-76
2023/11/25 06:38:22;;;;;;;15.55;2.45;;;;;;;5.18;75.92;99033.34;4995488;28;20435;-79
2023/11/25 06:40:48;;;;;;;15.57;2.40;;;;;;;5.18;76.23;99049.00;4977785;28;20050;-74
2023/11/25 06:43:15;;;;;;;13.93;2.88;;;;;;;5.19;76.08;99048.09;4978227;28;20074;-75
2023/11/25 06:45:44;;;;;;;11.48;1.67;;;;;;;5.19;75.69;99058.53;4994987;28;20491;-75
2023/11/25 06:48:10;;;;;;;12.88;2.00;;;;;;;5.19;75.88;99035.91;4977170;28;20118;-76
2023/11/25 06:50:37;;;;;;;15.45;2.35;;;;;;;5.20;75.75;99039.38;5006200;28;20058;-79
2023/11/25 06:53:04;;;;;;;10.95;2.15;;;;;;;5.19;75.92;99043.72;5013637;28;20073;-74
2023/11/25 06:55:32;;;;;;;12.48;2.15;;;;;;;5.18;75.97;99038.56;5013809;28;20053;-75
2023/11/25 06:58:03;;;;;;;4.15;1.48;;;;;;;5.18;76.23;99039.44;4996798;28;20054;-76
2023/11/25 07:00:30;;;;;;;13.77;2.10;;;;;;;5.19;76.27;99035.91;5013586;28;20049;-73
2023/11/25 07:02:56;;;;;;;8.43;1.50;;;;;;;5.19;75.99;99040.25;5013373;28;20057;-80
2023/11/25 07:05:23;;;;;;;15.07;1.98;;;;;;;5.18;75.97;99031.59;5013662;28;20072;-76
2023/11/25 07:07:49;;;;;;;12.13;2.08;;;;;;;5.18;76.53;99028.13;5013636;28;20047;-74
2023/11/25 07:10:16;;;;;;;11.13;1.90;;;;;;;5.19;76.53;99032.44;5013376;28;20050;-76
2023/11/25 07:12:44;;;;;;;8.65;1.85;;;;;;;5.20;76.69;99039.38;5013241;28;20466;-75
2023/11/25 07:15:12;;;;;;;11.90;2.72;;;;;;;5.20;76.42;99031.53;5013342;28;20050;-76
2023/11/25 07:17:38;;;;;;;7.50;1.77;;;;;;;5.20;76.55;99031.53;5013432;28;20093;-76
2023/11/25 07:20:13;;;;;;;6.22;1.20;;;;;;;5.21;76.65;99020.19;5013403;28;20049;-75
2023/11/25 07:22:41;;;;;;;8.02;1.48;;;;;;;5.22;76.70;99021.84;5013142;28;20045;-75
2023/11/25 07:25:11;;;;;;;10.25;1.63;;;;;;;5.24;76.84;99020.03;5013316;28;20049;-81
2023/11/25 07:27:44;;;;;;;5.03;1.50;;;;;;;5.26;76.15;99019.94;5013211;28;20054;-77
2023/11/25 07:30:12;;;;;;;8.48;1.23;;;;;;;5.29;76.80;99028.50;5006142;28;20452;-74
2023/11/25 07:32:39;;;;;;;8.07;1.67;;;;;;;5.31;76.71;99037.06;4994323;28;20074;-76
2023/11/25 07:35:07;;;;;;;12.48;2.00;;;;;;;5.33;77.07;99037.00;4994019;28;20050;-77
2023/11/25 07:37:34;;;;;;;9.13;1.83;;;;;;;5.34;76.81;99031.72;4994231;28;20046;-76
2023/11/25 07:40:14;;;;;;;8.63;1.10;;;;;;;5.36;77.06;99042.09;4993997;28;20082;-76
2023/11/25 07:42:45;;;;;;;6.60;1.20;;;;;;;5.37;76.31;99024.66;5012575;28;20434;-75
2023/11/25 07:45:12;;;;;;;10.40;1.10;;;;;;;5.39;76.53;99021.09;5013169;28;20050;-76
2023/11/25 07:47:41;;;;;;;6.57;1.30;;;;;;;5.40;76.56;99024.50;5012691;28;20053;-77
2023/11/25 07:50:09;;;;;;;4.72;0.85;;;;;;;5.40;76.49;99029.75;5012641;28;20410;-76
2023/11/25 07:52:36;;;;;;;5.95;1.48;;;;;;;5.41;76.84;99037.50;5012506;28;20052;-78
2023/11/25 07:55:06;;;;;;;12.25;1.52;;;;;;;5.43;76.84;99040.03;5012301;28;20081;-76
2023/11/25 07:57:33;;;;;;;5.88;1.10;;;;;;;5.45;77.18;99035.56;5012583;28;20081;-76
2023/11/25 08:00:00;;;;;;;6.63;1.10;;;;;;;5.47;77.26;99031.16;5004398;28;20049;-78
2023/11/25 08:02:27;;;;;;;5.93;1.40;;;;;;;5.51;77.34;99034.44;5012334;28;20430;-74
2023/11/25 08:04:54;;;;;;;5.82;1.23;;;;;;;5.54;77.59;99029.94;5012119;28;20060;-75
2023/11/25 08:07:23;;;;;;;4.38;1.00;;;;;;;5.58;77.77;99034.06;5012188;28;20160;-75
2023/11/25 08:09:51;;;;;;;4.18;1.00;;;;;;;5.62;77.92;99042.63;5012309;28;20046;-78
2023/11/25 08:12:18;;;;;;;4.30;0.95;;;;;;;5.66;77.51;99041.56;5012255;28;20065;-76
2023/11/25 08:14:47;;;;;;;1.80;0.75;;;;;;;5.70;77.28;99042.25;5012191;28;20096;-74
2023/11/25 08:17:14;;;;;;;4.55;0.80;;;;;;;5.72;77.24;99038.63;5012267;28;20064;-76
2023/11/25 08:19:41;;;;;;;4.90;0.98;;;;;;;5.76;77.40;99049.81;5012027;28;20054;-76
2023/11/25 08:22:07;;;;;;;2.88;0.98;;;;;;;5.76;77.26;99039.34;4994955;28;20511;-75
2023/11/25 08:24:34;;;;;;;5.07;1.23;;;;;;;5.80;77.32;99051.31;5011569;28;20068;-74
2023/11/25 08:27:01;;;;;;;4.22;0.98;;;;;;;5.81;77.34;99046.94;4994779;28;20049;-74
2023/11/25 08:29:27;;;;;;;3.83;1.10;;;;;;;5.83;77.49;99039.91;4994480;28;20078;-79
2023/11/25 08:31:54;;;;;;;3.88;0.77;;;;;;;5.86;77.46;99034.50;5011926;28;20049;-74
2023/11/25 08:34:20;;;;;;;6.13;0.90;;;;;;;5.89;77.65;99043.94;4994380;28;20054;-75
2023/11/25 08:36:53;;;;;;;3.03;0.75;;;;;;;5.92;77.58;99035.97;5012031;28;20050;-75
2023/11/25 08:39:21;;;;;;;3.65;1.00;;;;;;;5.94;77.54;99040.19;5011994;28;20054;-74
2023/11/25 08:41:50;;;;;;;5.50;0.80;;;;;;;5.97;77.10;99039.19;4986523;28;20050;-75
2023/11/25 08:44:17;;;;;;;4.43;0.93;;;;;;;6.02;77.62;99028.53;5011570;28;20073;-75
2023/11/25 08:46:44;;;;;;;2.00;0.65;;;;;;;6.04;77.57;99024.94;4993984;28;20400;-73
2023/11/25 08:49:18;;;;;;;3.35;0.75;;;;;;;6.07;77.78;99034.41;5011543;28;20057;-74
2023/11/25 08:51:49;;;;;;;4.20;1.08;;;;;;;6.11;77.71;99028.09;4994305;28;20046;-74
2023/11/25 08:54:18;;;;;;;4.60;0.80;;;;;;;6.16;77.76;99030.50;5011557;28;20453;-76
2023/11/25 08:56:45;;;;;;;3.25;0.80;;;;;;;6.19;77.41;99044.22;5011498;28;20050;-74
2023/11/25 08:59:21;;;;;;;2.63;0.90;;;;;;;6.21;77.38;99046.78;4993917;28;20042;-75
2023/11/25 09:01:48;;;;;;;3.80;1.08;;;;;;;6.23;77.06;99045.78;5011553;28;20050;-74
2023/11/25 09:04:25;;;;;;;4.60;0.98;;;;;;;6.24;76.80;99036.16;5011643;28;20053;-74
2023/11/25 09:06:52;;;;;;;4.80;1.50;;;;;;;6.25;76.62;99041.31;5003728;28;20042;-74
2023/11/25 09:09:20;;;;;;;1.17;0.65;;;;;;;6.24;76.39;99055.28;5011246;28;20061;-77
2023/11/25 09:11:48;;;;;;;2.47;0.70;;;;;;;6.23;76.72;99045.78;5011178;28;20056;-77
2023/11/25 09:14:16;;;;;;;4.70;0.93;;;;;;;6.24;76.56;99043.97;4993601;28;20495;-75
2023/11/25 09:16:43;;;;;;;3.45;0.77;;;;;;;6.24;77.14;99041.38;5011262;28;20049;-75
2023/11/25 09:19:11;;;;;;;2.22;0.93;;;;;;;6.23;76.92;99035.31;5011297;28;20056;-76
2023/11/25 09:21:37;;;;;;;3.60;1.00;;;;;;;6.24;77.04;99033.53;5011108;28;20077;-73
2023/11/25 09:24:05;;;;;;;2.38;1.13;;;;;;;6.24;77.18;99025.69;5011048;28;20084;-78
2023/11/25 09:26:33;;;;;;;3.35;1.00;;;;;;;6.27;77.07;99024.72;5011031;28;20054;-75
2023/11/25 09:29:00;;;;;;;7.25;1.45;;;;;;;6.29;77.30;99021.09;5010952;28;20062;-75
2023/11/25 09:31:26;;;;;;;2.70;1.10;;;;;;;6.32;77.74;99020.91;5011100;28;20112;-74
2023/11/25 09:33:54;;;;;;;4.18;1.40;;;;;;;6.36;77.52;99025.06;4985501;28;20168;-74
2023/11/25 09:36:22;;;;;;;8.15;1.50;;;;;;;6.40;78.01;99025.78;5010364;28;20471;-74
2023/11/25 09:38:49;;;;;;;4.95;1.88;;;;;;;6.43;78.06;99012.53;5010840;28;20392;-76
2023/11/25 09:41:15;;;;;;;4.97;1.30;;;;;;;6.46;78.00;99025.44;5010901;28;20491;-77
2023/11/25 09:43:42;;;;;;;6.43;1.50;;;;;;;6.49;77.55;99019.22;5010784;28;20121;-74
2023/11/25 09:46:10;;;;;;;5.78;1.42;;;;;;;6.51;78.12;99018.19;4993427;28;20076;-74
2023/11/25 09:48:36;;;;;;;2.90;1.60;;;;;;;6.55;78.24;99021.53;5010615;28;20108;-78
2023/11/25 09:51:08;;;;;;;8.32;1.92;;;;;;;6.58;77.76;99018.72;5010872;28;20050;-76
2023/11/25 09:53:36;;;;;;;6.65;1.52;;;;;;;6.64;78.68;99023.66;4993153;28;20054;-74
2023/11/25 09:56:05;;;;;;;5.57;1.67;;;;;;;6.71;78.89;99024.16;5010999;28;20057;-75
2023/11/25 09:58:36;;;;;;;5.53;1.38;;;;;;;6.78;78.65;99015.06;5010688;28;20046;-74
2023/11/25 10:01:06;;;;;;;8.20;1.55;;;;;;;6.88;79.00;98998.88;5010893;28;20045;-78
2023/11/25 10:03:36;;;;;;;9.05;1.42;;;;;;;6.98;79.47;98996.59;5010741;28;20183;-76
2023/11/25 10:06:03;;;;;;;8.57;1.48;;;;;;;7.07;79.47;98998.72;4993216;28;20164;-77
2023/11/25 10:08:30;;;;;;;5.88;1.95;;;;;;;7.14;78.42;99004.47;5010707;28;20117;-76
2023/11/25 10:11:08;;;;;;;12.30;2.00;;;;;;;7.15;76.97;99001.75;4986372;28;20509;-76
2023/11/25 10:13:38;;;;;;;6.82;1.73;;;;;;;7.19;77.34;99002.44;5011019;28;20116;-76
2023/11/25 10:16:06;;;;;;;8.23;1.48;;;;;;;7.19;76.96;98996.34;5010860;28;20046;-76
2023/11/25 10:18:36;;;;;;;5.95;1.67;;;;;;;7.16;76.65;99003.47;5010388;28;20057;-77
2023/11/25 10:21:06;;;;;;;6.85;1.52;;;;;;;7.14;76.91;98994.81;4992994;28;20585;-77
2023/11/25 10:23:34;;;;;;;8.18;1.95;;;;;;;7.15;77.35;98991.28;4992965;28;20046;-77
2023/11/25 10:26:03;;;;;;;6.38;1.75;;;;;;;7.15;77.72;98988.66;5010591;28;20057;-76
2023/11/25 10:28:36;;;;;;;8.07;1.80;;;;;;;7.17;77.68;98988.56;4992896;28;20053;-78
2023/11/25 10:31:05;;;;;;;5.93;1.75;;;;;;;7.20;77.96;98979.72;5003212;28;20158;-76
2023/11/25 10:33:33;;;;;;;7.25;1.52;;;;;;;7.24;78.07;98981.22;4992636;28;20046;-77
2023/11/25 10:36:02;;;;;;;4.93;1.75;;;;;;;7.27;78.03;98983.69;5002954;28;20153;-77
2023/11/25 10:38:29;;;;;;;8.23;1.73;;;;;;;7.30;78.55;98984.34;4992787;28;20046;-75
2023/11/25 10:40:58;;;;;;;5.97;1.52;;;;;;;7.33;77.96;98970.22;5010265;28;20050;-77
2023/11/25 10:43:26;;;;;;;6.75;1.60;;;;;;;7.37;78.02;98957.84;5010120;28;20124;-76
2023/11/25 10:46:07;;;;;;;8.10;1.52;;;;;;;7.36;76.36;98970.06;5011269;28;20153;-77
2023/11/25 10:48:35;;;;;;;8.30;1.58;;;;;;;7.41;77.92;98972.44;5013754;28;20560;-75
2023/11/25 10:51:03;;;;;;;7.43;1.33;;;;;;;7.43;77.90;98973.19;5006461;28;20049;-74
2023/11/25 10:53:30;;;;;;;7.10;1.60;;;;;;;7.45;78.13;98973.97;5013757;28;20458;-77
2023/11/25 10:55:59;;;;;;;12.75;1.60;;;;;;;7.50;79.03;98979.78;5013731;28;20109;-76
2023/11/25 10:58:27;;;;;;;5.32;1.45;;;;;;;7.58;80.25;98978.50;5013851;28;20064;-73
2023/11/25 11:00:55;;;;;;;10.98;1.60;;;;;;;7.69;80.51;98976.09;5013786;28;20042;-75
2023/11/25 11:03:43;;;;;;;8.45;1.58;;;;;;;7.82;79.09;98984.09;4996046;28;20105;-76
2023/11/25 11:06:15;;;;;;;6.05;1.13;;;;;;;8.00;80.46;98987.41;4997218;28;20048;-76
2023/11/25 11:08:46;;;;;;;9.80;1.50;;;;;;;8.12;79.38;98988.47;5013644;28;20050;-75
2023/11/25 11:11:16;;;;;;;6.10;1.38;;;;;;;8.23;78.83;98982.59;5013759;28;20041;-75
2023/11/25 11:14:00;;;;;;;5.72;1.25;;;;;;;8.28;77.41;98990.16;5013277;28;20038;-76
2023/11/25 11:16:39;;;;;;;6.28;1.27;;;;;;;8.32;76.27;98991.66;5013543;28;20054;-76
2023/11/25 11:19:07;;;;;;;3.65;0.88;;;;;;;8.35;77.26;98981.81;4996026;28;20104;-77
2023/11/25 11:21:38;;;;;;;7.53;1.17;;;;;;;8.36;76.32;98982.69;4995786;28;20049;-77
2023/11/25 11:24:08;;;;;;;8.15;1.48;;;;;;;8.36;75.99;98985.31;5005685;28;20133;-77
2023/11/25 11:26:51;;;;;;;5.30;1.00;;;;;;;8.31;75.28;98998.72;4996036;28;20041;-75
2023/11/25 11:29:28;;;;;;;6.28;1.45;;;;;;;8.32;76.26;98997.78;5013117;28;20612;-74
2023/11/25 11:31:59;;;;;;;3.97;1.17;;;;;;;8.33;76.31;99003.84;4995742;28;20057;-74
2023/11/25 11:34:36;;;;;;;3.67;0.90;;;;;;;8.29;75.50;98999.72;5012979;28;20104;-75
2023/11/25 11:37:08;;;;;;;2.90;0.70;;;;;;;8.32;76.72;99002.16;5013161;28;20038;-76
2023/11/25 11:40:00;;;;;;;4.63;1.05;;;;;;;8.27;75.30;98994.59;5012868;28;20124;-75
2023/11/25 11:42:34;;;;;;;3.97;0.95;;;;;;;8.29;76.78;98995.31;5013160;28;20050;-75
2023/11/25 11:45:27;;;;;;;4.15;1.00;;;;;;;8.27;75.57;98994.59;5012827;28;20050;-75